Time;durP1;ratioP1;P1;durP2;ratioP2;P2;SDS_P1;SDS_P2;PMS_P1;PMS_P2;Temp;Humidity;BMP_temperature;BMP_pressure;BME280_temperature;BME280_humidity;BME280_pressure;Samples;Min_cycle;Max_cycle;Signal;HPM_P1;HPM_P2
2023/11/16 00:00:32;;;;;;;9.40;7.10;;;;;;;5.28;99.96;96407.27;106997;1257;137966;-87
2023/11/16 00:03:20;;;;;;;8.30;5.30;;;;;;;5.27;99.99;96406.46;109106;1277;22575;-87
2023/11/16 00:05:47;;;;;;;8.70;5.50;;;;;;;5.26;99.98;96407.02;107077;1277;139573;-87
2023/11/16 00:08:13;;;;;;;9.10;7.40;;;;;;;5.23;99.73;96408.33;107116;1278;25403;-86
2023/11/16 00:10:40;;;;;;;9.90;6.50;;;;;;;5.21;99.89;96407.15;107442;1266;22599;-86
2023/11/16 00:13:06;;;;;;;9.10;6.60;;;;;;;5.20;99.86;96406.66;107532;1272;137525;-87
2023/11/16 00:15:33;;;;;;;9.60;6.60;;;;;;;5.21;99.97;96406.63;107345;1263;22551;-87
2023/11/16 00:18:03;;;;;;;8.70;6.30;;;;;;;5.21;100.00;96407.96;107141;1278;137791;-87
2023/11/16 00:20:29;;;;;;;10.80;7.90;;;;;;;5.23;99.85;96411.88;107193;1277;25386;-86
2023/11/16 00:22:55;;;;;;;10.40;8.10;;;;;;;5.25;100.00;96413.59;107331;1275;22977;-87
2023/11/16 00:25:21;;;;;;;10.40;6.80;;;;;;;5.27;100.00;96417.34;107202;1278;138535;-87
2023/11/16 00:27:47;;;;;;;9.60;6.60;;;;;;;5.27;100.00;96419.35;107503;1274;25264;-87
2023/11/16 00:30:14;;;;;;;10.50;8.10;;;;;;;5.29;100.00;96418.90;107182;1276;138280;-86
2023/11/16 00:32:40;;;;;;;9.20;7.10;;;;;;;5.28;100.00;96417.75;107332;1271;22537;-87
2023/11/16 00:35:07;;;;;;;10.30;6.00;;;;;;;5.29;100.00;96418.71;107279;1278;22607;-86
2023/11/16 00:37:34;;;;;;;7.90;6.40;;;;;;;5.28;99.93;96420.31;107222;1277;138239;-87
2023/11/16 00:40:00;;;;;;;6.90;5.90;;;;;;;5.29;99.98;96423.34;107240;1277;24200;-87
2023/11/16 00:42:28;;;;;;;7.70;6.50;;;;;;;5.29;100.00;96427.96;107028;1277;137897;-87
2023/11/16 00:44:54;;;;;;;8.10;5.80;;;;;;;5.29;100.00;96427.06;107303;1277;22538;-86
2023/11/16 00:47:20;;;;;;;9.80;6.70;;;;;;;5.30;100.00;96427.84;107389;1277;22596;-87
2023/11/16 00:49:46;;;;;;;9.60;6.50;;;;;;;5.32;100.00;96426.84;107065;1278;137761;-88
2023/11/16 00:52:12;;;;;;;6.60;5.90;;;;;;;5.32;100.00;96429.84;107270;1277;22541;-86
2023/11/16 00:54:39;;;;;;;9.00;6.40;;;;;;;5.33;100.00;96429.98;107181;1278;138297;-87
2023/11/16 00:57:05;;;;;;;9.10;4.90;;;;;;;5.34;100.00;96432.05;107247;1277;22536;-87
2023/11/16 00:59:31;;;;;;;7.40;5.50;;;;;;;5.33;99.98;96435.08;107270;1278;140219;-86
2023/11/16 01:01:58;;;;;;;9.30;6.90;;;;;;;5.34;100.00;96432.14;107353;1278;22537;-87
2023/11/16 01:04:25;;;;;;;7.20;6.10;;;;;;;5.35;100.00;96438.34;107136;1278;22597;-87
2023/11/16 01:06:53;;;;;;;7.30;5.70;;;;;;;5.34;99.95;96436.34;107109;1272;137734;-86
2023/11/16 01:09:20;;;;;;;13.40;8.10;;;;;;;5.33;100.00;96439.13;107278;1278;22586;-87
2023/11/16 01:11:46;;;;;;;8.40;6.10;;;;;;;5.32;100.00;96443.44;107099;1273;138785;-86
2023/11/16 01:14:16;;;;;;;9.60;6.20;;;;;;;5.31;100.00;96443.88;107263;1275;26516;-87
2023/11/16 01:16:45;;;;;;;11.30;8.00;;;;;;;5.32;100.00;96449.87;110180;1272;22219;-88
2023/11/16 01:19:21;;;;;;;8.10;7.10;;;;;;;5.32;100.00;96447.63;110142;1278;138517;-87
2023/11/16 01:21:54;;;;;;;8.40;6.30;;;;;;;5.33;100.00;96440.58;110248;1275;22882;-87
2023/11/16 01:24:22;;;;;;;7.30;5.70;;;;;;;5.35;100.00;96440.78;110151;1270;137923;-87
2023/11/16 01:26:49;;;;;;;7.80;5.60;;;;;;;5.36;100.00;96442.16;110256;1278;22254;-88
2023/11/16 01:29:18;;;;;;;9.70;5.60;;;;;;;5.36;100.00;96438.41;110260;1277;22183;-88
2023/11/16 01:31:45;;;;;;;6.90;4.80;;;;;;;5.37;99.99;96436.30;109019;1277;138357;-87
2023/11/16 01:34:12;;;;;;;6.70;5.20;;;;;;;5.38;100.00;96438.45;107383;1278;25311;-87
2023/11/16 01:36:39;;;;;;;9.00;5.90;;;;;;;5.40;100.00;96438.40;107186;1275;139934;-86
2023/11/16 01:39:05;;;;;;;6.00;4.60;;;;;;;5.42;100.00;96437.29;107177;1278;25359;-86
2023/11/16 01:41:31;;;;;;;7.70;5.30;;;;;;;5.45;100.00;96434.98;106957;1278;138690;-87
2023/11/16 01:43:57;;;;;;;5.80;4.10;;;;;;;5.46;100.00;96435.28;107044;1272;22633;-87
2023/11/16 01:46:26;;;;;;;8.90;4.50;;;;;;;5.44;99.91;96432.53;107134;1278;25408;-87
2023/11/16 01:48:54;;;;;;;7.00;4.50;;;;;;;5.44;100.00;96433.36;106962;1272;137551;-87
2023/11/16 01:51:20;;;;;;;10.70;6.80;;;;;;;5.46;100.00;96431.61;107299;1276;22733;-86
2023/11/16 01:53:57;;;;;;;9.60;6.00;;;;;;;5.50;100.00;96435.43;107127;1278;138525;-88
2023/11/16 01:56:24;;;;;;;7.00;4.40;;;;;;;5.51;100.00;96438.02;110279;1278;22253;-88
2023/11/16 01:58:51;;;;;;;6.80;4.60;;;;;;;5.49;100.00;96432.91;110198;1278;22502;-88
2023/11/16 02:01:17;;;;;;;6.00;4.00;;;;;;;5.48;100.00;96433.71;109997;1272;138372;-87
2023/11/16 02:03:49;;;;;;;7.30;5.10;;;;;;;5.48;100.00;96436.42;110306;1277;22364;-88
2023/11/16 02:06:15;;;;;;;;;;;;;;;5.50;100.00;96434.70;110206;1272;138729;-87
2023/11/16 02:08:41;;;;;;;5.80;4.40;;;;;;;5.50;100.00;96437.60;110308;1278;22231;-87
2023/11/16 02:11:07;;;;;;;5.80;4.70;;;;;;;5.51;100.00;96436.83;108456;1277;25398;-87
2023/11/16 02:13:34;;;;;;;5.90;4.60;;;;;;;5.53;100.00;96438.36;107277;1277;137678;-87
2023/11/16 02:16:00;;;;;;;7.30;4.70;;;;;;;5.54;100.00;96438.59;107323;1278;22570;-87
2023/11/16 02:18:29;;;;;;;6.30;4.40;;;;;;;5.55;100.00;96444.71;107281;1278;138089;-87
2023/11/16 02:20:56;;;;;;;7.30;5.40;;;;;;;5.57;100.00;96442.47;110266;1277;22846;-87
2023/11/16 02:23:22;;;;;;;8.90;6.30;;;;;;;5.57;100.00;96443.09;108786;1270;24387;-87
2023/11/16 02:25:50;;;;;;;7.60;6.20;;;;;;;5.57;100.00;96443.98;110126;1277;137501;-88
2023/11/16 02:28:19;;;;;;;7.40;6.30;;;;;;;5.57;100.00;96444.85;107771;1278;25323;-87
2023/11/16 02:30:45;;;;;;;8.90;8.00;;;;;;;5.57;100.00;96443.80;110023;1278;138048;-87
2023/11/16 02:33:14;;;;;;;9.10;7.20;;;;;;;5.57;100.00;96446.23;110303;1278;22212;-87
2023/11/16 02:35:41;;;;;;;15.90;12.60;;;;;;;5.57;100.00;96444.20;110140;1273;138983;-88
2023/11/16 02:38:07;;;;;;;19.40;13.90;;;;;;;5.55;100.00;96444.00;110295;1272;22204;-88
2023/11/16 02:40:34;;;;;;;13.60;9.80;;;;;;;5.55;100.00;96449.16;110341;1277;22252;-87
2023/11/16 02:43:02;;;;;;;18.30;11.50;;;;;;;5.54;100.00;96453.59;110119;1272;138068;-87
2023/11/16 02:45:28;;;;;;;22.30;15.00;;;;;;;5.52;100.00;96451.17;110269;1277;23063;-87
2023/11/16 02:47:54;;;;;;;23.40;15.70;;;;;;;5.49;100.00;96455.89;110235;1277;138334;-87
2023/11/16 02:50:22;;;;;;;16.60;10.90;;;;;;;5.49;100.00;96458.30;108714;1278;22589;-87
2023/11/16 02:52:50;;;;;;;26.50;18.50;;;;;;;5.50;100.00;96459.46;110192;1278;22216;-88
2023/11/16 02:55:17;;;;;;;17.00;13.70;;;;;;;5.49;100.00;96463.00;109974;1274;138633;-87
2023/11/16 02:57:43;;;;;;;14.40;10.60;;;;;;;5.45;100.00;96461.08;110258;1277;22478;-88
2023/11/16 03:00:12;;;;;;;9.10;6.80;;;;;;;5.45;100.00;96471.26;110161;1267;139109;-87
2023/11/16 03:02:41;;;;;;;22.40;18.20;;;;;;;5.44;100.00;96469.64;109973;1278;22184;-88
2023/11/16 03:05:12;;;;;;;18.00;13.10;;;;;;;5.45;100.00;96472.51;110279;1278;22225;-88
2023/11/16 03:07:38;;;;;;;13.10;9.90;;;;;;;5.44;100.00;96475.95;110181;1272;138791;-87
2023/11/16 03:10:08;;;;;;;6.90;5.70;;;;;;;5.43;100.00;96476.37;107868;1278;22541;-87
2023/11/16 03:12:35;;;;;;;6.10;4.50;;;;;;;5.42;100.00;96474.91;107139;1270;137679;-87
2023/11/16 03:15:01;;;;;;;6.70;5.40;;;;;;;5.41;100.00;96480.38;110269;1269;22911;-88
2023/11/16 03:17:28;;;;;;;6.10;5.30;;;;;;;5.39;100.00;96480.45;110188;1278;138875;-87
2023/11/16 03:19:54;;;;;;;7.30;6.10;;;;;;;5.36;100.00;96483.77;108279;1277;24382;-86
2023/11/16 03:22:20;;;;;;;6.20;5.40;;;;;;;5.35;100.00;96483.04;107165;1278;22791;-88
2023/11/16 03:24:46;;;;;;;6.10;5.20;;;;;;;5.34;100.00;96480.39;107097;1270;138080;-87
2023/11/16 03:27:13;;;;;;;9.60;8.60;;;;;;;5.34;100.00;96481.56;107353;1278;22583;-87
2023/11/16 03:29:39;;;;;;;9.60;8.60;;;;;;;5.35;100.00;96482.02;107263;1278;139096;-87
2023/11/16 03:32:07;;;;;;;10.10;9.10;;;;;;;5.33;100.00;96479.23;107386;1278;22548;-86
2023/11/16 03:34:34;;;;;;;7.80;7.00;;;;;;;5.33;100.00;96482.70;107270;1278;22563;-86
2023/11/16 03:37:02;;;;;;;10.00;7.30;;;;;;;5.32;100.00;96488.81;107262;1277;137561;-87
2023/11/16 03:39:28;;;;;;;9.60;8.30;;;;;;;5.31;100.00;96488.20;107365;1278;22640;-87
2023/11/16 03:41:55;;;;;;;8.00;6.40;;;;;;;5.29;100.00;96486.35;107128;1277;138438;-87
2023/11/16 03:44:21;;;;;;;7.40;6.60;;;;;;;5.27;100.00;96487.26;107355;1273;22666;-86
2023/11/16 03:46:47;;;;;;;5.70;4.90;;;;;;;5.24;100.00;96484.56;107073;1278;166812;-87
2023/11/16 03:49:14;;;;;;;6.20;4.20;;;;;;;5.22;100.00;96487.58;107183;1277;137766;-87
2023/11/16 03:51:40;;;;;;;6.50;4.60;;;;;;;5.20;100.00;96487.77;107334;1278;24081;-87
2023/11/16 03:54:06;;;;;;;4.40;4.00;;;;;;;5.17;100.00;96487.85;107251;1272;140075;-87
2023/11/16 03:56:32;;;;;;;7.10;6.40;;;;;;;5.12;100.00;96480.73;107286;1266;22560;-87
2023/11/16 03:58:58;;;;;;;6.60;5.90;;;;;;;5.10;100.00;96474.37;107254;1277;24219;-87
2023/11/16 04:01:24;;;;;;;5.50;4.90;;;;;;;5.09;100.00;96478.16;107205;1277;137967;-87
2023/11/16 04:03:49;;;;;;;5.70;4.70;;;;;;;5.06;100.00;96478.91;107283;1276;22531;-87
2023/11/16 04:06:22;;;;;;;6.90;5.00;;;;;;;5.03;100.00;96483.63;107102;1266;137661;-87
2023/11/16 04:08:49;;;;;;;5.70;4.30;;;;;;;5.01;100.00;96489.52;107047;1266;22642;-86
2023/11/16 04:11:17;;;;;;;6.10;4.40;;;;;;;5.01;100.00;96497.98;107333;1278;22548;-87
2023/11/16 04:13:46;;;;;;;5.20;4.00;;;;;;;5.00;100.00;96504.70;107119;1277;137567;-87
2023/11/16 04:16:20;;;;;;;5.80;3.60;;;;;;;5.02;100.00;96507.65;107321;1270;22533;-87
2023/11/16 04:18:49;;;;;;;5.50;4.30;;;;;;;5.04;100.00;96506.43;107199;1278;138401;-86
2023/11/16 04:21:18;;;;;;;5.30;4.20;;;;;;;5.06;100.00;96504.02;107012;1278;22649;-87
2023/11/16 04:23:52;;;;;;;5.20;3.30;;;;;;;5.07;100.00;96503.39;107076;1278;137967;-86
2023/11/16 04:26:21;;;;;;;4.30;3.50;;;;;;;5.06;100.00;96498.80;107201;1272;22748;-87
2023/11/16 04:28:48;;;;;;;5.80;4.30;;;;;;;5.04;100.00;96500.39;110287;1277;23303;-88
2023/11/16 04:31:15;;;;;;;6.20;4.40;;;;;;;5.03;100.00;96494.33;109909;1277;138274;-87
2023/11/16 04:33:41;;;;;;;3.20;2.80;;;;;;;5.03;100.00;96495.17;107329;1277;22537;-87
2023/11/16 04:36:08;;;;;;;4.80;3.10;;;;;;;5.02;100.00;96496.78;107259;1277;138474;-87
2023/11/16 04:38:34;;;;;;;3.50;3.00;;;;;;;5.02;100.00;96496.67;107216;1278;22611;-87
2023/11/16 04:41:02;;;;;;;3.30;2.60;;;;;;;5.00;100.00;96491.86;107263;1254;25460;-86
2023/11/16 04:43:30;;;;;;;3.60;2.50;;;;;;;4.97;100.00;96489.52;107133;1277;137684;-86
2023/11/16 04:45:56;;;;;;;4.90;3.50;;;;;;;4.96;100.00;96487.93;107411;1277;25442;-87
2023/11/16 04:48:22;;;;;;;2.50;2.30;;;;;;;4.95;100.00;96489.95;107242;1278;138712;-87
2023/11/16 04:50:49;;;;;;;3.50;2.70;;;;;;;4.94;100.00;96493.15;107015;1276;24835;-87
2023/11/16 04:53:16;;;;;;;2.70;2.20;;;;;;;4.93;100.00;96495.23;107319;1278;25406;-86
2023/11/16 04:55:42;;;;;;;2.60;2.10;;;;;;;4.93;100.00;96496.03;107101;1271;137504;-87
2023/11/16 04:58:08;;;;;;;2.50;2.10;;;;;;;4.91;100.00;96498.17;107151;1278;24256;-87
2023/11/16 05:00:34;;;;;;;3.90;2.00;;;;;;;4.92;100.00;96499.52;107182;1278;138051;-87
2023/11/16 05:03:00;;;;;;;2.20;1.80;;;;;;;4.93;100.00;96496.89;107233;1278;22546;-87
2023/11/16 05:05:26;;;;;;;2.00;1.60;;;;;;;4.92;100.00;96491.27;107147;1276;138427;-86
2023/11/16 05:07:52;;;;;;;2.10;1.70;;;;;;;4.94;100.00;96491.45;107348;1278;25362;-88
2023/11/16 05:10:19;;;;;;;1.60;1.50;;;;;;;4.94;100.00;96497.41;107282;1276;23235;-87
2023/11/16 05:12:48;;;;;;;2.60;1.70;;;;;;;4.94;100.00;96501.49;107075;1278;137666;-87
2023/11/16 05:15:15;;;;;;;2.10;1.50;;;;;;;4.95;100.00;96502.27;107323;1272;24063;-87
2023/11/16 05:17:42;;;;;;;2.00;1.30;;;;;;;4.96;100.00;96501.31;108651;1272;138582;-87
2023/11/16 05:20:09;;;;;;;2.70;2.40;;;;;;;4.97;100.00;96507.09;107363;1278;25294;-86
2023/11/16 05:22:35;;;;;;;2.00;1.60;;;;;;;4.99;100.00;96506.92;107396;1266;23921;-87
2023/11/16 05:25:01;;;;;;;2.00;1.60;;;;;;;5.00;100.00;96504.89;107231;1276;138578;-87
2023/11/16 05:27:28;;;;;;;3.40;1.80;;;;;;;5.01;100.00;96502.52;107383;1273;22545;-87
2023/11/16 05:29:54;;;;;;;2.40;1.60;;;;;;;5.02;100.00;96502.09;107295;1276;138272;-87
2023/11/16 05:32:20;;;;;;;1.20;1.10;;;;;;;5.03;100.00;96495.71;107380;1276;25455;-87
2023/11/16 05:34:47;;;;;;;1.50;1.20;;;;;;;5.04;100.00;96496.67;107394;1276;22536;-86
2023/11/16 05:37:14;;;;;;;1.70;1.10;;;;;;;5.07;100.00;96502.58;107293;1277;137662;-87
2023/11/16 05:39:41;;;;;;;1.60;1.30;;;;;;;5.08;100.00;96503.11;107413;1270;22622;-87
2023/11/16 05:42:08;;;;;;;3.10;1.60;;;;;;;5.09;100.00;96499.38;107202;1256;137903;-88
2023/11/16 05:44:34;;;;;;;1.80;1.20;;;;;;;5.11;100.00;96505.23;107302;1277;25359;-87
2023/11/16 05:47:00;;;;;;;1.90;1.40;;;;;;;5.12;100.00;96507.49;107369;1277;24337;-87
2023/11/16 05:49:26;;;;;;;2.80;1.10;;;;;;;5.14;100.00;96497.98;107269;1278;138375;-88
2023/11/16 05:51:54;;;;;;;1.70;1.20;;;;;;;5.15;100.00;96492.54;107261;1278;26695;-87
2023/11/16 05:54:20;;;;;;;2.00;1.50;;;;;;;5.13;100.00;96490.84;107149;1277;139239;-87
2023/11/16 05:56:48;;;;;;;3.70;1.70;;;;;;;5.13;100.00;96496.80;107272;1271;24209;-87
2023/11/16 05:59:14;;;;;;;2.00;1.20;;;;;;;5.13;100.00;96487.52;107345;1277;25427;-86
2023/11/16 06:01:44;;;;;;;2.00;1.40;;;;;;;5.11;100.00;96486.14;107154;1270;137642;-88
2023/11/16 06:04:11;;;;;;;3.00;1.80;;;;;;;5.12;100.00;96486.38;110363;1278;22219;-87
2023/11/16 06:06:37;;;;;;;3.10;2.20;;;;;;;5.15;100.00;96489.60;110159;1278;137723;-88
2023/11/16 06:09:04;;;;;;;4.10;2.70;;;;;;;5.16;100.00;96491.39;110337;1270;23216;-87
2023/11/16 06:11:30;;;;;;;3.00;2.20;;;;;;;5.18;100.00;96494.44;109411;1276;139040;-87
2023/11/16 06:13:56;;;;;;;4.00;2.60;;;;;;;5.21;100.00;96495.91;107354;1277;22552;-87
2023/11/16 06:16:24;;;;;;;8.50;4.50;;;;;;;5.24;100.00;96492.90;107392;1277;23092;-87
2023/11/16 06:18:50;;;;;;;2.90;2.40;;;;;;;5.26;100.00;96490.44;107123;1272;138892;-87
2023/11/16 06:21:16;;;;;;;3.70;2.80;;;;;;;5.28;100.00;96488.65;107298;1271;25336;-87
2023/11/16 06:23:43;;;;;;;7.00;3.50;;;;;;;5.29;100.00;96488.02;107132;1272;138256;-87
2023/11/16 06:26:09;;;;;;;47.90;19.80;;;;;;;5.30;100.00;96491.05;107243;1273;25342;-87
2023/11/16 06:28:35;;;;;;;72.60;29.40;;;;;;;5.30;100.00;96491.45;107295;1277;24527;-86
2023/11/16 06:31:01;;;;;;;16.20;7.50;;;;;;;5.30;100.00;96486.39;107091;1278;138112;-87
2023/11/16 06:33:27;;;;;;;12.60;6.70;;;;;;;5.31;100.00;96487.70;107223;1277;25356;-86
2023/11/16 06:35:53;;;;;;;12.80;7.80;;;;;;;5.31;100.00;96487.16;107130;1272;138141;-87
2023/11/16 06:38:19;;;;;;;18.30;9.60;;;;;;;5.33;100.00;96488.72;107130;1278;24398;-87
2023/11/16 06:40:46;;;;;;;16.30;8.50;;;;;;;5.34;100.00;96487.60;107251;1267;22540;-87
2023/11/16 06:43:13;;;;;;;19.40;10.50;;;;;;;5.35;100.00;96494.38;107085;1277;137816;-87
2023/11/16 06:45:40;;;;;;;61.80;26.90;;;;;;;5.35;100.00;96489.35;107191;1270;27949;-87
2023/11/16 06:48:07;;;;;;;20.20;9.10;;;;;;;5.37;100.00;96491.93;107190;1278;138611;-87
2023/11/16 06:50:38;;;;;;;8.20;5.50;;;;;;;5.40;100.00;96493.55;107069;1276;22655;-87
2023/11/16 06:53:09;;;;;;;40.80;16.20;;;;;;;5.42;100.00;96496.37;107290;1278;22541;-86
2023/11/16 06:55:35;;;;;;;18.20;8.10;;;;;;;5.46;100.00;96485.79;106993;1278;139681;-87
2023/11/16 06:58:03;;;;;;;71.30;27.60;;;;;;;5.48;100.00;96486.77;107314;1270;25408;-87
2023/11/16 07:00:30;;;;;;;46.90;18.20;;;;;;;5.51;100.00;96488.21;106929;1278;138496;-87
2023/11/16 07:02:57;;;;;;;36.90;15.60;;;;;;;5.54;100.00;96496.17;107330;1278;22598;-87
2023/11/16 07:05:23;;;;;;;40.20;17.40;;;;;;;5.56;100.00;96495.92;107400;1278;22542;-88
2023/11/16 07:07:49;;;;;;;102.30;44.10;;;;;;;5.60;100.00;96493.91;107253;1278;138262;-87
2023/11/16 07:10:16;;;;;;;42.30;24.80;;;;;;;5.62;100.00;96495.02;107273;1272;22645;-87
2023/11/16 07:12:42;;;;;;;13.00;7.30;;;;;;;5.63;100.00;96491.46;107006;1277;139240;-86
2023/11/16 07:15:09;;;;;;;15.30;7.70;;;;;;;5.65;100.00;96496.14;107021;1278;22589;-87
2023/11/16 07:17:37;;;;;;;25.40;11.40;;;;;;;5.67;100.00;96495.92;107007;1278;138417;-87
2023/11/16 07:20:13;;;;;;;27.50;12.90;;;;;;;5.69;100.00;96504.16;107298;1278;25304;-87
2023/11/16 07:22:43;;;;;;;52.30;20.90;;;;;;;5.71;100.00;96501.94;107327;1277;22529;-87
2023/11/16 07:25:10;;;;;;;19.40;9.50;;;;;;;5.74;100.00;96504.52;107109;1278;137926;-87
2023/11/16 07:27:38;;;;;;;9.00;4.70;;;;;;;5.77;100.00;96498.73;107212;1278;22554;-87
2023/11/16 07:30:04;;;;;;;12.70;6.70;;;;;;;5.80;100.00;96501.88;107137;1277;137845;-87
2023/11/16 07:32:30;;;;;;;23.40;9.90;;;;;;;5.83;100.00;96498.31;107251;1278;24209;-88
2023/11/16 07:34:58;;;;;;;7.80;5.10;;;;;;;5.86;100.00;96500.80;107229;1278;25482;-87
2023/11/16 07:37:24;;;;;;;4.00;3.30;;;;;;;5.88;100.00;96499.89;107184;1276;138182;-86
2023/11/16 07:39:51;;;;;;;7.90;5.10;;;;;;;5.90;100.00;96502.80;107319;1276;25349;-87
2023/11/16 07:42:17;;;;;;;16.80;7.30;;;;;;;5.91;100.00;96504.39;107133;1270;138903;-87
2023/11/16 07:44:46;;;;;;;30.60;13.20;;;;;;;5.93;100.00;96500.98;107241;1277;22621;-87
2023/11/16 07:47:13;;;;;;;8.70;5.80;;;;;;;5.96;100.00;96500.35;107338;1277;22625;-87
2023/11/16 07:49:40;;;;;;;6.40;3.90;;;;;;;5.98;100.00;96492.34;107161;1277;138301;-87
2023/11/16 07:52:07;;;;;;;4.00;3.50;;;;;;;6.00;100.00;96492.64;110350;1276;23188;-87
2023/11/16 07:54:33;;;;;;;4.50;3.60;;;;;;;6.03;100.00;96494.30;110239;1273;138315;-88
2023/11/16 07:57:02;;;;;;;5.70;4.20;;;;;;;6.06;100.00;96497.85;110388;1276;22210;-88
2023/11/16 07:59:32;;;;;;;15.00;7.10;;;;;;;6.07;100.00;96498.05;110262;1277;137905;-87
2023/11/16 08:02:00;;;;;;;9.30;5.70;;;;;;;6.09;100.00;96497.01;110361;1277;22235;-88
2023/11/16 08:04:27;;;;;;;12.10;6.90;;;;;;;6.12;100.00;96496.02;110226;1278;22380;-88
2023/11/16 08:06:56;;;;;;;9.50;6.50;;;;;;;6.15;100.00;96494.73;110001;1277;138448;-88
2023/11/16 08:09:24;;;;;;;7.80;5.40;;;;;;;6.18;100.00;96494.61;110319;1277;22323;-88
2023/11/16 08:11:54;;;;;;;7.20;5.30;;;;;;;6.20;100.00;96487.45;107454;1278;138836;-87
2023/11/16 08:14:30;;;;;;;10.30;5.40;;;;;;;6.24;100.00;96490.48;107195;1278;24382;-87
2023/11/16 08:16:58;;;;;;;9.60;5.80;;;;;;;6.27;100.00;96493.77;107233;1277;22587;-87
2023/11/16 08:19:31;;;;;;;26.50;12.90;;;;;;;6.31;100.00;96494.78;107289;1278;137730;-87
2023/11/16 08:22:01;;;;;;;19.90;11.70;;;;;;;6.33;100.00;96496.60;107193;1275;22671;-87
2023/11/16 08:24:30;;;;;;;10.10;6.60;;;;;;;6.36;100.00;96496.64;107146;1278;138027;-87
2023/11/16 08:26:58;;;;;;;6.50;5.00;;;;;;;6.36;100.00;96496.70;107042;1278;22733;-87
2023/11/16 08:29:24;;;;;;;15.80;8.20;;;;;;;6.37;100.00;96501.48;107174;1272;22569;-88
2023/11/16 08:31:54;;;;;;;7.50;5.50;;;;;;;6.38;100.00;96498.77;107152;1277;138134;-87
2023/11/16 08:34:20;;;;;;;8.70;5.80;;;;;;;6.39;100.00;96502.77;107240;1278;23888;-87
2023/11/16 08:36:46;;;;;;;5.80;3.80;;;;;;;6.40;100.00;96496.84;107050;1277;138088;-87
2023/11/16 08:39:14;;;;;;;12.40;6.80;;;;;;;6.41;100.00;96497.27;107185;1276;22647;-87
2023/11/16 08:41:43;;;;;;;9.80;6.60;;;;;;;6.43;100.00;96502.11;107143;1278;138007;-87
2023/11/16 08:44:09;;;;;;;16.10;8.90;;;;;;;6.45;100.00;96492.92;110255;1278;22183;-88
2023/11/16 08:46:41;;;;;;;11.90;6.20;;;;;;;6.48;100.00;96489.80;110261;1278;22228;-88
2023/11/16 08:49:10;;;;;;;7.50;4.90;;;;;;;6.52;100.00;96483.59;110058;1278;138710;-88
2023/11/16 08:51:38;;;;;;;6.30;4.10;;;;;;;6.55;100.00;96478.80;110149;1278;22432;-88
2023/11/16 08:54:08;;;;;;;9.20;5.90;;;;;;;6.58;100.00;96475.39;107884;1277;137839;-87
2023/11/16 08:56:35;;;;;;;5.90;4.50;;;;;;;6.62;100.00;96478.20;107020;1278;22530;-87
2023/11/16 08:59:07;;;;;;;6.30;4.60;;;;;;;6.68;100.00;96482.05;107308;1273;22544;-87
2023/11/16 09:01:37;;;;;;;9.50;4.90;;;;;;;6.70;100.00;96481.58;107069;1278;138168;-87
2023/11/16 09:04:05;;;;;;;16.20;9.00;;;;;;;6.72;100.00;96483.59;107209;1278;24259;-87
2023/11/16 09:06:31;;;;;;;5.40;4.00;;;;;;;6.74;100.00;96481.52;107006;1278;138549;-87
2023/11/16 09:09:08;;;;;;;5.50;4.50;;;;;;;6.76;100.00;96482.39;107093;1266;24960;-87
2023/11/16 09:11:35;;;;;;;8.20;5.40;;;;;;;6.79;100.00;96476.39;107107;1278;138171;-87
2023/11/16 09:14:03;;;;;;;8.50;5.50;;;;;;;6.83;100.00;96478.91;110247;1278;22880;-88
2023/11/16 09:16:29;;;;;;;9.90;6.10;;;;;;;6.88;100.00;96485.48;110268;1278;22388;-88
2023/11/16 09:18:56;;;;;;;14.00;7.10;;;;;;;6.93;100.00;96488.56;109678;1278;138172;-87
2023/11/16 09:21:26;;;;;;;9.80;6.30;;;;;;;6.98;100.00;96489.80;107064;1265;22553;-87
2023/11/16 09:23:52;;;;;;;9.40;5.80;;;;;;;7.03;100.00;96489.96;107097;1278;137835;-87
2023/11/16 09:26:18;;;;;;;14.90;8.50;;;;;;;7.08;100.00;96487.16;107263;1277;22534;-87
2023/11/16 09:28:44;;;;;;;12.30;6.50;;;;;;;7.11;100.00;96482.71;107252;1273;22549;-88
2023/11/16 09:31:11;;;;;;;7.80;5.50;;;;;;;7.15;100.00;96485.43;107086;1277;137992;-86
2023/11/16 09:33:38;;;;;;;11.70;7.90;;;;;;;7.18;100.00;96480.64;107248;1278;22540;-87
2023/11/16 09:36:05;;;;;;;10.20;6.80;;;;;;;7.20;100.00;96476.12;106871;1275;138942;-87
2023/11/16 09:38:32;;;;;;;7.10;4.00;;;;;;;7.22;100.00;96465.73;107177;1272;24353;-87
2023/11/16 09:41:01;;;;;;;4.80;3.50;;;;;;;7.23;100.00;96457.91;107307;1278;22632;-87
2023/11/16 09:43:30;;;;;;;4.10;2.60;;;;;;;7.24;100.00;96451.61;106941;1278;137664;-87
2023/11/16 09:45:56;;;;;;;4.60;2.90;;;;;;;7.23;100.00;96448.38;107094;1277;25547;-86
2023/11/16 09:48:22;;;;;;;8.70;4.70;;;;;;;7.24;100.00;96448.83;107002;1276;137846;-87
2023/11/16 09:50:49;;;;;;;7.40;4.40;;;;;;;7.26;100.00;96444.04;107195;1272;25415;-87
2023/11/16 09:53:17;;;;;;;11.30;6.40;;;;;;;7.27;100.00;96447.73;107246;1273;25275;-87
2023/11/16 09:55:50;;;;;;;6.00;4.30;;;;;;;7.30;100.00;96441.33;107046;1278;139071;-87
2023/11/16 09:58:25;;;;;;;11.90;7.70;;;;;;;7.34;100.00;96441.81;107157;1277;22694;-88
2023/11/16 10:00:55;;;;;;;9.70;5.60;;;;;;;7.38;100.00;96440.19;106961;1278;137894;-87
2023/11/16 10:03:26;;;;;;;9.60;5.90;;;;;;;7.41;100.00;96441.00;107251;1276;22543;-86
2023/11/16 10:05:55;;;;;;;8.00;5.30;;;;;;;7.45;100.00;96438.21;110245;1276;137812;-88
2023/11/16 10:08:23;;;;;;;8.70;4.90;;;;;;;7.48;100.00;96430.79;110164;1277;22226;-86
2023/11/16 10:10:52;;;;;;;6.10;3.70;;;;;;;7.52;100.00;96426.20;110298;1266;22302;-86
2023/11/16 10:13:18;;;;;;;10.10;5.70;;;;;;;7.57;100.00;96427.11;110259;1273;138777;-86
2023/11/16 10:15:47;;;;;;;13.30;7.50;;;;;;;7.61;100.00;96424.48;110384;1270;22592;-86
2023/11/16 10:18:13;;;;;;;7.30;5.50;;;;;;;7.65;100.00;96426.83;109100;1278;137890;-85
2023/11/16 10:20:43;;;;;;;7.00;5.00;;;;;;;7.67;100.00;96429.02;107075;1278;22630;-88
2023/11/16 10:23:11;;;;;;;6.90;4.20;;;;;;;7.69;100.00;96432.35;107228;1278;22534;-87
2023/11/16 10:25:38;;;;;;;8.00;6.40;;;;;;;7.72;100.00;96433.31;110063;1278;138660;-87
2023/11/16 10:28:14;;;;;;;8.50;6.10;;;;;;;7.74;100.00;96426.68;109547;1277;24378;-87
2023/11/16 10:30:46;;;;;;;8.70;5.40;;;;;;;7.78;100.00;96420.85;110036;1275;138587;-87
2023/11/16 10:33:15;;;;;;;;;;;;;;;7.87;100.00;96417.05;110179;1278;23162;-86
2023/11/16 10:35:48;;;;;;;9.70;6.40;;;;;;;7.96;100.00;96412.08;108394;1278;124714;-88
2023/11/16 10:38:17;;;;;;;9.30;5.10;;;;;;;8.08;100.00;96411.98;110318;1278;22248;-87
2023/11/16 10:40:49;;;;;;;4.10;3.00;;;;;;;8.18;100.00;96417.59;110275;1272;23316;-86
2023/11/16 10:43:25;;;;;;;3.40;3.10;;;;;;;8.24;100.00;96414.60;109989;1273;138568;-86
2023/11/16 10:45:53;;;;;;;20.40;9.80;;;;;;;8.29;100.00;96412.84;110096;1278;23212;-87
2023/11/16 10:48:20;;;;;;;14.10;6.30;;;;;;;8.33;100.00;96409.80;108413;1278;137795;-86
2023/11/16 10:50:46;;;;;;;9.50;6.10;;;;;;;8.37;100.00;96411.27;107213;1277;22526;-86
2023/11/16 10:53:23;;;;;;;6.60;4.50;;;;;;;8.40;100.00;96411.09;107089;1278;22749;-86
2023/11/16 10:55:51;;;;;;;7.10;5.20;;;;;;;8.43;100.00;96409.86;110176;1275;137510;-87
2023/11/16 10:58:21;;;;;;;5.60;4.00;;;;;;;8.43;100.00;96405.41;110088;1277;23052;-86
2023/11/16 11:00:53;;;;;;;5.40;3.60;;;;;;;8.42;100.00;96401.60;109926;1277;138295;-86
2023/11/16 11:03:20;;;;;;;10.40;6.40;;;;;;;8.42;100.00;96401.52;110203;1275;22326;-85
2023/11/16 11:05:51;;;;;;;6.20;4.20;;;;;;;8.43;100.00;96397.48;109480;1277;138510;-86
2023/11/16 11:08:19;;;;;;;4.20;3.10;;;;;;;8.43;100.00;96391.22;107175;1275;22678;-86
2023/11/16 11:10:47;;;;;;;3.30;2.70;;;;;;;8.43;100.00;96386.48;107293;1275;25344;-87
2023/11/16 11:13:18;;;;;;;7.00;4.40;;;;;;;8.40;100.00;96387.59;107113;1278;138042;-87
2023/11/16 11:15:46;;;;;;;5.30;3.40;;;;;;;8.39;100.00;96382.52;107037;1279;23335;-87
2023/11/16 11:18:25;;;;;;;4.90;3.00;;;;;;;8.40;100.00;96372.20;107075;1278;139237;-87
2023/11/16 11:21:09;;;;;;;7.90;5.10;;;;;;;8.41;100.00;96371.14;107260;1278;23395;-86